sensor_id;sensor_type;location;lat;lon;timestamp;pressure;altitude;pressure_sealevel;temperature;humidity
80248;BME280;69560;52.206;21.018;2023-07-31T00:00:56;99552.81;;;20.98;55.59
80248;BME280;69560;52.206;21.018;2023-07-31T00:03:27;99553.30;;;20.97;55.59
80248;BME280;69560;52.206;21.018;2023-07-31T00:05:54;99552.79;;;20.96;55.60
80248;BME280;69560;52.206;21.018;2023-07-31T00:08:20;99554.15;;;20.94;55.58
80248;BME280;69560;52.206;21.018;2023-07-31T00:10:47;99554.01;;;20.91;55.45
80248;BME280;69560;52.206;21.018;2023-07-31T00:13:13;99554.14;;;20.90;55.57
80248;BME280;69560;52.206;21.018;2023-07-31T00:15:40;99557.52;;;20.86;55.60
80248;BME280;69560;52.206;21.018;2023-07-31T00:18:06;99562.19;;;20.81;55.51
80248;BME280;69560;52.206;21.018;2023-07-31T00:20:33;99560.14;;;20.77;55.48
80248;BME280;69560;52.206;21.018;2023-07-31T00:22:59;99562.14;;;20.74;55.73
80248;BME280;69560;52.206;21.018;2023-07-31T00:25:25;99560.50;;;20.72;55.82
80248;BME280;69560;52.206;21.018;2023-07-31T00:27:52;99556.13;;;20.71;55.83
80248;BME280;69560;52.206;21.018;2023-07-31T00:30:18;99558.13;;;20.71;55.84
80248;BME280;69560;52.206;21.018;2023-07-31T00:32:45;99553.22;;;20.71;55.76
80248;BME280;69560;52.206;21.018;2023-07-31T00:35:11;99554.48;;;20.70;55.69
80248;BME280;69560;52.206;21.018;2023-07-31T00:37:38;99558.09;;;20.67;55.79
80248;BME280;69560;52.206;21.018;2023-07-31T00:40:04;99555.70;;;20.64;55.79
80248;BME280;69560;52.206;21.018;2023-07-31T00:42:31;99553.61;;;20.64;55.90
80248;BME280;69560;52.206;21.018;2023-07-31T00:44:57;99546.01;;;20.63;56.13
80248;BME280;69560;52.206;21.018;2023-07-31T00:47:24;99545.48;;;20.61;56.02
80248;BME280;69560;52.206;21.018;2023-07-31T00:49:51;99547.35;;;20.59;55.96
80248;BME280;69560;52.206;21.018;2023-07-31T00:52:18;99544.84;;;20.57;56.05
80248;BME280;69560;52.206;21.018;2023-07-31T00:54:45;99550.29;;;20.55;56.06
80248;BME280;69560;52.206;21.018;2023-07-31T00:57:12;99551.36;;;20.52;56.05
80248;BME280;69560;52.206;21.018;2023-07-31T00:59:38;99545.39;;;20.47;55.99
80248;BME280;69560;52.206;21.018;2023-07-31T01:02:05;99545.63;;;20.45;56.07
80248;BME280;69560;52.206;21.018;2023-07-31T01:04:32;99546.36;;;20.47;56.29
80248;BME280;69560;52.206;21.018;2023-07-31T01:09:42;99549.91;;;20.49;56.41
80248;BME280;69560;52.206;21.018;2023-07-31T01:12:14;99550.70;;;20.47;56.29
80248;BME280;69560;52.206;21.018;2023-07-31T01:14:51;99554.52;;;20.46;56.54
80248;BME280;69560;52.206;21.018;2023-07-31T01:17:17;99552.91;;;20.43;56.49
80248;BME280;69560;52.206;21.018;2023-07-31T01:19:44;99554.61;;;20.41;56.54
80248;BME280;69560;52.206;21.018;2023-07-31T01:22:41;99555.70;;;20.37;56.51
80248;BME280;69560;52.206;21.018;2023-07-31T01:28:30;99556.06;;;20.33;56.59
80248;BME280;69560;52.206;21.018;2023-07-31T01:31:00;99552.26;;;20.34;56.67
80248;BME280;69560;52.206;21.018;2023-07-31T01:33:28;99550.91;;;20.33;56.65
80248;BME280;69560;52.206;21.018;2023-07-31T01:35:55;99552.91;;;20.33;56.76
80248;BME280;69560;52.206;21.018;2023-07-31T01:38:23;99556.85;;;20.33;56.89
80248;BME280;69560;52.206;21.018;2023-07-31T01:40:52;99560.29;;;20.31;56.78
80248;BME280;69560;52.206;21.018;2023-07-31T01:43:19;99560.79;;;20.26;56.75
80248;BME280;69560;52.206;21.018;2023-07-31T01:45:46;99560.59;;;20.22;56.91
80248;BME280;69560;52.206;21.018;2023-07-31T01:48:12;99560.07;;;20.21;56.90
80248;BME280;69560;52.206;21.018;2023-07-31T01:50:39;99561.23;;;20.19;57.12
80248;BME280;69560;52.206;21.018;2023-07-31T01:53:05;99561.71;;;20.20;57.06
80248;BME280;69560;52.206;21.018;2023-07-31T01:55:32;99558.48;;;20.20;57.05
80248;BME280;69560;52.206;21.018;2023-07-31T01:57:58;99564.80;;;20.21;57.11
80248;BME280;69560;52.206;21.018;2023-07-31T02:00:25;99569.99;;;20.20;57.08
80248;BME280;69560;52.206;21.018;2023-07-31T02:02:51;99564.83;;;20.17;57.23
80248;BME280;69560;52.206;21.018;2023-07-31T02:05:18;99570.27;;;20.12;57.05
80248;BME280;69560;52.206;21.018;2023-07-31T02:07:44;99566.15;;;20.08;57.18
80248;BME280;69560;52.206;21.018;2023-07-31T02:10:10;99568.53;;;20.00;57.27
80248;BME280;69560;52.206;21.018;2023-07-31T02:12:37;99570.30;;;19.93;57.36
80248;BME280;69560;52.206;21.018;2023-07-31T02:15:04;99566.77;;;19.86;57.57
80248;BME280;69560;52.206;21.018;2023-07-31T02:17:31;99567.04;;;19.86;57.76
80248;BME280;69560;52.206;21.018;2023-07-31T02:19:57;99569.04;;;19.83;57.74
80248;BME280;69560;52.206;21.018;2023-07-31T02:22:24;99572.14;;;19.82;57.78
80248;BME280;69560;52.206;21.018;2023-07-31T02:24:50;99574.41;;;19.83;58.00
80248;BME280;69560;52.206;21.018;2023-07-31T02:27:16;99580.95;;;19.82;57.97
80248;BME280;69560;52.206;21.018;2023-07-31T02:29:43;99580.90;;;19.81;58.13
80248;BME280;69560;52.206;21.018;2023-07-31T02:32:09;99581.68;;;19.80;58.24
80248;BME280;69560;52.206;21.018;2023-07-31T02:34:36;99581.00;;;19.78;58.23
80248;BME280;69560;52.206;21.018;2023-07-31T02:37:02;99583.10;;;19.75;58.21
80248;BME280;69560;52.206;21.018;2023-07-31T02:39:29;99586.59;;;19.77;58.34
80248;BME280;69560;52.206;21.018;2023-07-31T02:41:55;99591.34;;;19.76;58.41
80248;BME280;69560;52.206;21.018;2023-07-31T02:44:22;99592.18;;;19.78;58.42
80248;BME280;69560;52.206;21.018;2023-07-31T02:46:48;99592.88;;;19.79;58.64
80248;BME280;69560;52.206;21.018;2023-07-31T02:49:15;99592.21;;;19.80;58.55
80248;BME280;69560;52.206;21.018;2023-07-31T02:51:42;99588.08;;;19.81;58.68
80248;BME280;69560;52.206;21.018;2023-07-31T02:54:08;99587.44;;;19.81;58.59
80248;BME280;69560;52.206;21.018;2023-07-31T02:56:35;99582.59;;;19.79;58.75
80248;BME280;69560;52.206;21.018;2023-07-31T02:59:01;99579.08;;;19.78;58.77
80248;BME280;69560;52.206;21.018;2023-07-31T03:01:27;99580.85;;;19.78;58.74
80248;BME280;69560;52.206;21.018;2023-07-31T03:03:54;99590.66;;;19.77;58.65
80248;BME280;69560;52.206;21.018;2023-07-31T03:06:20;99592.89;;;19.76;58.54
80248;BME280;69560;52.206;21.018;2023-07-31T03:08:47;99584.56;;;19.71;58.54
80248;BME280;69560;52.206;21.018;2023-07-31T03:11:13;99589.98;;;19.70;58.75
80248;BME280;69560;52.206;21.018;2023-07-31T03:13:40;99585.17;;;19.70;58.93
80248;BME280;69560;52.206;21.018;2023-07-31T03:16:06;99582.89;;;19.68;58.72
80248;BME280;69560;52.206;21.018;2023-07-31T03:18:32;99584.34;;;19.68;58.82
80248;BME280;69560;52.206;21.018;2023-07-31T03:20:59;99589.80;;;19.68;58.88
80248;BME280;69560;52.206;21.018;2023-07-31T03:23:25;99590.98;;;19.69;58.78
80248;BME280;69560;52.206;21.018;2023-07-31T03:26:00;99587.61;;;19.69;58.81
80248;BME280;69560;52.206;21.018;2023-07-31T03:28:27;99583.34;;;19.67;58.66
80248;BME280;69560;52.206;21.018;2023-07-31T03:30:53;99585.77;;;19.66;58.91
80248;BME280;69560;52.206;21.018;2023-07-31T03:33:20;99586.84;;;19.65;58.79
80248;BME280;69560;52.206;21.018;2023-07-31T03:35:46;99592.17;;;19.64;58.93
80248;BME280;69560;52.206;21.018;2023-07-31T03:38:13;99595.83;;;19.65;59.03
80248;BME280;69560;52.206;21.018;2023-07-31T03:40:40;99604.54;;;19.67;58.86
80248;BME280;69560;52.206;21.018;2023-07-31T03:43:06;99599.03;;;19.69;58.95
80248;BME280;69560;52.206;21.018;2023-07-31T03:45:32;99602.02;;;19.71;58.97
80248;BME280;69560;52.206;21.018;2023-07-31T03:47:59;99604.76;;;19.71;58.87
80248;BME280;69560;52.206;21.018;2023-07-31T03:50:25;99605.48;;;19.71;58.95
80248;BME280;69560;52.206;21.018;2023-07-31T03:52:52;99615.16;;;19.73;58.94
80248;BME280;69560;52.206;21.018;2023-07-31T03:55:18;99614.46;;;19.72;58.91
80248;BME280;69560;52.206;21.018;2023-07-31T03:57:45;99616.16;;;19.71;59.06
80248;BME280;69560;52.206;21.018;2023-07-31T04:00:12;99611.89;;;19.69;58.96
80248;BME280;69560;52.206;21.018;2023-07-31T04:02:38;99617.73;;;19.75;58.99
80248;BME280;69560;52.206;21.018;2023-07-31T04:05:05;99616.23;;;19.77;58.95
80248;BME280;69560;52.206;21.018;2023-07-31T04:07:32;99617.67;;;19.78;59.10
80248;BME280;69560;52.206;21.018;2023-07-31T04:09:59;99619.33;;;19.79;58.86
80248;BME280;69560;52.206;21.018;2023-07-31T04:12:26;99623.83;;;19.79;58.98
80248;BME280;69560;52.206;21.018;2023-07-31T04:14:52;99627.09;;;19.77;58.99
80248;BME280;69560;52.206;21.018;2023-07-31T04:17:19;99628.92;;;19.75;58.92
80248;BME280;69560;52.206;21.018;2023-07-31T04:19:45;99627.75;;;19.74;59.08
80248;BME280;69560;52.206;21.018;2023-07-31T04:22:12;99623.73;;;19.74;58.96
80248;BME280;69560;52.206;21.018;2023-07-31T04:24:38;99629.52;;;19.71;59.00
80248;BME280;69560;52.206;21.018;2023-07-31T04:27:05;99628.00;;;19.70;58.92
80248;BME280;69560;52.206;21.018;2023-07-31T04:29:31;99635.41;;;19.70;58.90
80248;BME280;69560;52.206;21.018;2023-07-31T04:31:58;99634.09;;;19.71;58.80
80248;BME280;69560;52.206;21.018;2023-07-31T04:34:24;99634.04;;;19.70;58.90
80248;BME280;69560;52.206;21.018;2023-07-31T04:36:50;99639.05;;;19.69;58.75
80248;BME280;69560;52.206;21.018;2023-07-31T04:39:17;99647.98;;;19.69;58.84
80248;BME280;69560;52.206;21.018;2023-07-31T04:41:43;99649.67;;;19.69;58.80
80248;BME280;69560;52.206;21.018;2023-07-31T04:44:10;99653.33;;;19.67;58.91
80248;BME280;69560;52.206;21.018;2023-07-31T04:46:37;99652.92;;;19.67;58.84
80248;BME280;69560;52.206;21.018;2023-07-31T04:49:04;99655.55;;;19.69;58.93
80248;BME280;69560;52.206;21.018;2023-07-31T04:51:30;99653.38;;;19.68;58.77
80248;BME280;69560;52.206;21.018;2023-07-31T04:53:56;99652.02;;;19.68;58.80
80248;BME280;69560;52.206;21.018;2023-07-31T04:56:23;99646.61;;;19.69;58.70
80248;BME280;69560;52.206;21.018;2023-07-31T04:58:49;99645.80;;;19.66;58.77
80248;BME280;69560;52.206;21.018;2023-07-31T05:01:16;99650.00;;;19.66;58.81
80248;BME280;69560;52.206;21.018;2023-07-31T05:03:42;99646.94;;;19.66;58.84
80248;BME280;69560;52.206;21.018;2023-07-31T05:06:08;99648.48;;;19.68;58.95
80248;BME280;69560;52.206;21.018;2023-07-31T05:08:35;99648.31;;;19.72;59.00
80248;BME280;69560;52.206;21.018;2023-07-31T05:11:02;99649.81;;;19.75;58.94
80248;BME280;69560;52.206;21.018;2023-07-31T05:13:28;99653.11;;;19.78;58.80
80248;BME280;69560;52.206;21.018;2023-07-31T05:15:55;99660.05;;;19.83;58.78
80248;BME280;69560;52.206;21.018;2023-07-31T05:18:21;99656.15;;;19.85;58.83
80248;BME280;69560;52.206;21.018;2023-07-31T05:20:48;99659.66;;;19.88;58.78
80248;BME280;69560;52.206;21.018;2023-07-31T05:23:14;99662.79;;;19.92;58.74
80248;BME280;69560;52.206;21.018;2023-07-31T05:25:41;99661.26;;;19.92;58.73
80248;BME280;69560;52.206;21.018;2023-07-31T05:28:07;99659.66;;;19.92;58.70
80248;BME280;69560;52.206;21.018;2023-07-31T05:30:34;99658.88;;;19.94;58.70
80248;BME280;69560;52.206;21.018;2023-07-31T05:33:00;99657.77;;;19.93;58.55
80248;BME280;69560;52.206;21.018;2023-07-31T05:35:27;99663.20;;;19.92;58.42
80248;BME280;69560;52.206;21.018;2023-07-31T05:37:53;99667.60;;;19.93;58.44
80248;BME280;69560;52.206;21.018;2023-07-31T05:40:20;99668.52;;;19.94;58.33
80248;BME280;69560;52.206;21.018;2023-07-31T05:42:46;99671.33;;;19.98;58.36
80248;BME280;69560;52.206;21.018;2023-07-31T05:45:13;99673.06;;;19.99;58.35
80248;BME280;69560;52.206;21.018;2023-07-31T05:47:40;99674.48;;;19.97;58.21
80248;BME280;69560;52.206;21.018;2023-07-31T05:50:07;99677.22;;;19.93;58.20
80248;BME280;69560;52.206;21.018;2023-07-31T05:52:34;99680.83;;;19.94;58.37
80248;BME280;69560;52.206;21.018;2023-07-31T05:55:00;99687.80;;;19.95;58.33
80248;BME280;69560;52.206;21.018;2023-07-31T05:57:27;99689.36;;;19.94;58.25
80248;BME280;69560;52.206;21.018;2023-07-31T05:59:54;99690.25;;;19.94;58.17
80248;BME280;69560;52.206;21.018;2023-07-31T06:02:20;99697.50;;;19.99;58.12
80248;BME280;69560;52.206;21.018;2023-07-31T06:04:47;99692.60;;;19.99;58.12
80248;BME280;69560;52.206;21.018;2023-07-31T06:07:13;99701.55;;;20.01;58.08
80248;BME280;69560;52.206;21.018;2023-07-31T06:09:39;99702.73;;;20.04;58.05
80248;BME280;69560;52.206;21.018;2023-07-31T06:12:06;99702.52;;;20.06;58.15
80248;BME280;69560;52.206;21.018;2023-07-31T06:14:33;99710.13;;;20.08;58.19
80248;BME280;69560;52.206;21.018;2023-07-31T06:16:59;99709.47;;;20.08;58.16
80248;BME280;69560;52.206;21.018;2023-07-31T06:19:26;99710.55;;;20.09;58.23
80248;BME280;69560;52.206;21.018;2023-07-31T06:21:52;99708.21;;;20.10;58.33
80248;BME280;69560;52.206;21.018;2023-07-31T06:24:18;99710.44;;;20.10;58.31
80248;BME280;69560;52.206;21.018;2023-07-31T06:26:47;99707.05;;;20.14;58.26
80248;BME280;69560;52.206;21.018;2023-07-31T06:29:13;99704.22;;;20.14;58.15
80248;BME280;69560;52.206;21.018;2023-07-31T06:31:40;99704.00;;;20.14;58.08
80248;BME280;69560;52.206;21.018;2023-07-31T06:34:07;99700.14;;;20.14;58.18
80248;BME280;69560;52.206;21.018;2023-07-31T06:36:33;99707.48;;;20.13;58.11
80248;BME280;69560;52.206;21.018;2023-07-31T06:39:00;99710.60;;;20.11;58.42
80248;BME280;69560;52.206;21.018;2023-07-31T06:41:26;99713.21;;;20.09;58.50
80248;BME280;69560;52.206;21.018;2023-07-31T06:43:53;99712.13;;;20.05;58.44
80248;BME280;69560;52.206;21.018;2023-07-31T06:46:19;99711.05;;;20.03;58.51
80248;BME280;69560;52.206;21.018;2023-07-31T06:48:46;99718.92;;;20.06;58.48
80248;BME280;69560;52.206;21.018;2023-07-31T06:51:12;99716.45;;;20.09;58.37
80248;BME280;69560;52.206;21.018;2023-07-31T06:53:38;99723.17;;;20.13;58.54
80248;BME280;69560;52.206;21.018;2023-07-31T06:56:05;99725.59;;;20.13;58.51
80248;BME280;69560;52.206;21.018;2023-07-31T06:58:31;99722.27;;;20.11;58.36
80248;BME280;69560;52.206;21.018;2023-07-31T07:00:58;99723.02;;;20.04;58.28
80248;BME280;69560;52.206;21.018;2023-07-31T07:03:24;99716.90;;;19.98;58.35
80248;BME280;69560;52.206;21.018;2023-07-31T07:05:51;99719.25;;;19.97;58.56
80248;BME280;69560;52.206;21.018;2023-07-31T07:08:17;99721.00;;;19.98;58.57
80248;BME280;69560;52.206;21.018;2023-07-31T07:10:44;99715.77;;;20.01;58.81
80248;BME280;69560;52.206;21.018;2023-07-31T07:13:10;99716.27;;;20.07;58.65
80248;BME280;69560;52.206;21.018;2023-07-31T07:15:39;99712.48;;;20.12;58.65
80248;BME280;69560;52.206;21.018;2023-07-31T07:18:05;99715.61;;;20.18;58.68
80248;BME280;69560;52.206;21.018;2023-07-31T07:20:32;99724.39;;;20.28;58.77
80248;BME280;69560;52.206;21.018;2023-07-31T07:22:59;99727.24;;;20.38;58.87
80248;BME280;69560;52.206;21.018;2023-07-31T07:25:25;99725.02;;;20.48;58.90
80248;BME280;69560;52.206;21.018;2023-07-31T07:27:52;99725.22;;;20.54;58.37
80248;BME280;69560;52.206;21.018;2023-07-31T07:30:18;99722.86;;;20.55;58.35
80248;BME280;69560;52.206;21.018;2023-07-31T07:32:46;99730.15;;;20.62;58.39
80248;BME280;69560;52.206;21.018;2023-07-31T07:35:12;99720.52;;;20.66;58.19
80248;BME280;69560;52.206;21.018;2023-07-31T07:37:39;99721.81;;;20.77;58.22
80248;BME280;69560;52.206;21.018;2023-07-31T07:40:06;99715.52;;;20.90;58.25
80248;BME280;69560;52.206;21.018;2023-07-31T07:42:32;99713.84;;;21.05;58.27
80248;BME280;69560;52.206;21.018;2023-07-31T07:44:59;99711.46;;;21.17;57.98
80248;BME280;69560;52.206;21.018;2023-07-31T07:47:25;99711.39;;;21.32;57.86
80248;BME280;69560;52.206;21.018;2023-07-31T07:49:52;99711.33;;;21.43;57.72
80248;BME280;69560;52.206;21.018;2023-07-31T07:52:18;99712.11;;;21.54;57.61
80248;BME280;69560;52.206;21.018;2023-07-31T07:54:45;99712.24;;;21.62;57.34
80248;BME280;69560;52.206;21.018;2023-07-31T07:57:11;99716.46;;;21.66;56.93
80248;BME280;69560;52.206;21.018;2023-07-31T07:59:38;99724.33;;;21.69;56.75
80248;BME280;69560;52.206;21.018;2023-07-31T08:02:05;99724.59;;;21.73;56.56
80248;BME280;69560;52.206;21.018;2023-07-31T08:04:31;99724.30;;;21.80;56.45
80248;BME280;69560;52.206;21.018;2023-07-31T08:06:58;99720.83;;;21.89;56.49
80248;BME280;69560;52.206;21.018;2023-07-31T08:09:24;99717.73;;;21.99;56.35
80248;BME280;69560;52.206;21.018;2023-07-31T08:11:51;99716.00;;;22.07;56.19
80248;BME280;69560;52.206;21.018;2023-07-31T08:14:17;99715.37;;;22.11;55.84
80248;BME280;69560;52.206;21.018;2023-07-31T08:16:44;99710.64;;;22.19;55.91
80248;BME280;69560;52.206;21.018;2023-07-31T08:19:10;99708.06;;;22.32;55.80
80248;BME280;69560;52.206;21.018;2023-07-31T08:21:37;99707.23;;;22.43;55.42
80248;BME280;69560;52.206;21.018;2023-07-31T08:24:03;99704.88;;;22.51;55.24
80248;BME280;69560;52.206;21.018;2023-07-31T08:26:30;99710.33;;;22.56;54.95
80248;BME280;69560;52.206;21.018;2023-07-31T08:28:56;99708.63;;;22.61;54.92
80248;BME280;69560;52.206;21.018;2023-07-31T08:31:23;99714.05;;;22.69;54.58
80248;BME280;69560;52.206;21.018;2023-07-31T08:33:50;99711.65;;;22.77;54.36
80248;BME280;69560;52.206;21.018;2023-07-31T08:36:16;99710.00;;;22.85;54.32
80248;BME280;69560;52.206;21.018;2023-07-31T08:38:45;99704.92;;;22.95;54.26
80248;BME280;69560;52.206;21.018;2023-07-31T08:41:13;99707.54;;;23.09;54.15
80248;BME280;69560;52.206;21.018;2023-07-31T08:43:40;99707.16;;;23.20;53.89
80248;BME280;69560;52.206;21.018;2023-07-31T08:46:07;99711.94;;;23.30;53.51
80248;BME280;69560;52.206;21.018;2023-07-31T08:48:35;99703.71;;;23.38;53.24
80248;BME280;69560;52.206;21.018;2023-07-31T08:51:04;99704.08;;;23.45;52.88
80248;BME280;69560;52.206;21.018;2023-07-31T08:53:30;99703.61;;;23.52;52.63
80248;BME280;69560;52.206;21.018;2023-07-31T08:55:58;99702.66;;;23.59;52.31
80248;BME280;69560;52.206;21.018;2023-07-31T08:58:27;99703.41;;;23.70;52.18
80248;BME280;69560;52.206;21.018;2023-07-31T09:00:56;99701.63;;;23.84;52.20
80248;BME280;69560;52.206;21.018;2023-07-31T09:03:25;99698.97;;;23.99;51.90
80248;BME280;69560;52.206;21.018;2023-07-31T09:05:53;99705.89;;;24.14;51.78
80248;BME280;69560;52.206;21.018;2023-07-31T09:08:21;99708.86;;;24.25;51.35
80248;BME280;69560;52.206;21.018;2023-07-31T09:10:48;99709.11;;;24.36;50.92
80248;BME280;69560;52.206;21.018;2023-07-31T09:13:18;99709.65;;;24.45;50.30
80248;BME280;69560;52.206;21.018;2023-07-31T09:15:45;99712.09;;;24.52;50.00
80248;BME280;69560;52.206;21.018;2023-07-31T09:18:12;99712.52;;;24.56;49.75
80248;BME280;69560;52.206;21.018;2023-07-31T09:20:40;99704.27;;;24.60;49.19
80248;BME280;69560;52.206;21.018;2023-07-31T09:23:08;99711.31;;;24.65;49.31
80248;BME280;69560;52.206;21.018;2023-07-31T09:25:37;99701.95;;;24.77;49.21
80248;BME280;69560;52.206;21.018;2023-07-31T09:28:06;99701.81;;;24.89;48.95
80248;BME280;69560;52.206;21.018;2023-07-31T09:30:47;99707.20;;;25.04;48.87
80248;BME280;69560;52.206;21.018;2023-07-31T09:33:14;99711.60;;;25.22;48.45
80248;BME280;69560;52.206;21.018;2023-07-31T09:35:41;99711.27;;;25.32;48.22
80248;BME280;69560;52.206;21.018;2023-07-31T09:38:14;99709.98;;;25.42;48.00
80248;BME280;69560;52.206;21.018;2023-07-31T09:40:46;99710.86;;;25.42;47.50
80248;BME280;69560;52.206;21.018;2023-07-31T09:43:18;99709.97;;;25.44;47.26
80248;BME280;69560;52.206;21.018;2023-07-31T09:45:45;99713.89;;;25.41;47.01
80248;BME280;69560;52.206;21.018;2023-07-31T09:48:17;99710.71;;;25.47;46.67
80248;BME280;69560;52.206;21.018;2023-07-31T09:50:48;99711.27;;;25.55;46.59
80248;BME280;69560;52.206;21.018;2023-07-31T09:53:18;99713.78;;;25.61;46.34
80248;BME280;69560;52.206;21.018;2023-07-31T09:55:46;99707.81;;;25.69;46.05
80248;BME280;69560;52.206;21.018;2023-07-31T09:58:13;99705.29;;;25.81;46.04
80248;BME280;69560;52.206;21.018;2023-07-31T10:00:40;99703.66;;;25.90;45.69
80248;BME280;69560;52.206;21.018;2023-07-31T10:03:09;99699.76;;;25.91;45.04
80248;BME280;69560;52.206;21.018;2023-07-31T10:05:42;99699.58;;;25.95;44.90
80248;BME280;69560;52.206;21.018;2023-07-31T10:08:10;99701.16;;;26.06;44.83
80248;BME280;69560;52.206;21.018;2023-07-31T10:10:41;99702.80;;;26.15;44.48
80248;BME280;69560;52.206;21.018;2023-07-31T10:13:09;99704.88;;;26.25;43.88
80248;BME280;69560;52.206;21.018;2023-07-31T10:15:40;99701.89;;;26.39;43.59
80248;BME280;69560;52.206;21.018;2023-07-31T10:18:10;99702.12;;;26.56;43.30
80248;BME280;69560;52.206;21.018;2023-07-31T10:20:38;99698.49;;;26.75;43.17
80248;BME280;69560;52.206;21.018;2023-07-31T10:23:20;99697.79;;;26.88;42.89
80248;BME280;69560;52.206;21.018;2023-07-31T10:25:48;99697.19;;;26.89;42.30
80248;BME280;69560;52.206;21.018;2023-07-31T10:28:15;99694.48;;;26.95;42.26
80248;BME280;69560;52.206;21.018;2023-07-31T10:30:42;99690.23;;;27.06;42.21
80248;BME280;69560;52.206;21.018;2023-07-31T10:33:09;99690.02;;;27.16;41.96
80248;BME280;69560;52.206;21.018;2023-07-31T10:35:36;99687.73;;;27.22;41.74
80248;BME280;69560;52.206;21.018;2023-07-31T10:38:10;99685.11;;;27.23;41.29
80248;BME280;69560;52.206;21.018;2023-07-31T10:40:38;99689.75;;;27.22;41.21
80248;BME280;69560;52.206;21.018;2023-07-31T10:43:05;99687.34;;;27.30;41.30
80248;BME280;69560;52.206;21.018;2023-07-31T10:45:37;99687.64;;;27.37;40.87
80248;BME280;69560;52.206;21.018;2023-07-31T10:48:14;99692.75;;;27.47;40.38
80248;BME280;69560;52.206;21.018;2023-07-31T10:50:49;99693.80;;;27.52;40.10
80248;BME280;69560;52.206;21.018;2023-07-31T10:53:29;99689.52;;;27.64;40.05
80248;BME280;69560;52.206;21.018;2023-07-31T10:56:00;99686.59;;;27.73;39.62
80248;BME280;69560;52.206;21.018;2023-07-31T10:58:27;99690.30;;;27.77;39.64
80248;BME280;69560;52.206;21.018;2023-07-31T11:00:58;99691.27;;;27.82;39.21
80248;BME280;69560;52.206;21.018;2023-07-31T11:06:12;99688.63;;;27.87;38.63
80248;BME280;69560;52.206;21.018;2023-07-31T11:08:47;99687.38;;;27.90;38.23
80248;BME280;69560;52.206;21.018;2023-07-31T11:11:16;99682.19;;;27.93;38.06
80248;BME280;69560;52.206;21.018;2023-07-31T11:13:53;99686.66;;;27.97;37.84
80248;BME280;69560;52.206;21.018;2023-07-31T11:16:22;99685.56;;;27.93;37.51
80248;BME280;69560;52.206;21.018;2023-07-31T11:18:49;99685.92;;;27.91;37.29
80248;BME280;69560;52.206;21.018;2023-07-31T11:21:19;99684.80;;;27.94;37.31
80248;BME280;69560;52.206;21.018;2023-07-31T11:23:51;99680.33;;;28.04;37.25
80248;BME280;69560;52.206;21.018;2023-07-31T11:26:18;99679.09;;;28.18;37.06
80248;BME280;69560;52.206;21.018;2023-07-31T11:28:48;99684.27;;;28.31;37.15
80248;BME280;69560;52.206;21.018;2023-07-31T11:31:15;99684.30;;;28.44;36.88
80248;BME280;69560;52.206;21.018;2023-07-31T11:33:43;99675.05;;;28.48;36.55
80248;BME280;69560;52.206;21.018;2023-07-31T11:36:20;99674.63;;;28.55;36.46
80248;BME280;69560;52.206;21.018;2023-07-31T11:38:47;99676.62;;;28.61;36.30
80248;BME280;69560;52.206;21.018;2023-07-31T11:41:15;99679.70;;;28.59;35.76
80248;BME280;69560;52.206;21.018;2023-07-31T11:43:47;99682.86;;;28.36;34.88
80248;BME280;69560;52.206;21.018;2023-07-31T11:46:14;99679.75;;;28.12;34.96
80248;BME280;69560;52.206;21.018;2023-07-31T11:48:41;99680.42;;;27.96;34.96
80248;BME280;69560;52.206;21.018;2023-07-31T11:51:10;99670.64;;;27.86;35.14
80248;BME280;69560;52.206;21.018;2023-07-31T11:53:43;99672.54;;;27.73;35.12
80248;BME280;69560;52.206;21.018;2023-07-31T11:56:13;99676.80;;;27.56;35.08
80248;BME280;69560;52.206;21.018;2023-07-31T11:58:42;99666.31;;;27.38;34.87
80248;BME280;69560;52.206;21.018;2023-07-31T12:01:13;99666.95;;;27.17;35.09
80248;BME280;69560;52.206;21.018;2023-07-31T12:03:41;99664.82;;;27.03;35.40
80248;BME280;69560;52.206;21.018;2023-07-31T12:06:10;99669.79;;;26.87;35.51
80248;BME280;69560;52.206;21.018;2023-07-31T12:08:37;99672.95;;;26.73;35.69
80248;BME280;69560;52.206;21.018;2023-07-31T12:11:06;99666.98;;;26.64;35.92
80248;BME280;69560;52.206;21.018;2023-07-31T12:13:33;99667.50;;;26.55;35.84
80248;BME280;69560;52.206;21.018;2023-07-31T12:16:01;99666.80;;;26.40;35.97
80248;BME280;69560;52.206;21.018;2023-07-31T12:18:33;99668.06;;;26.27;36.07
80248;BME280;69560;52.206;21.018;2023-07-31T12:21:02;99666.08;;;26.20;36.44
80248;BME280;69560;52.206;21.018;2023-07-31T12:23:34;99665.52;;;26.16;36.55
80248;BME280;69560;52.206;21.018;2023-07-31T12:26:03;99663.38;;;26.15;36.82
80248;BME280;69560;52.206;21.018;2023-07-31T12:28:30;99660.53;;;26.12;36.74
80248;BME280;69560;52.206;21.018;2023-07-31T12:30:58;99657.77;;;26.08;36.87
80248;BME280;69560;52.206;21.018;2023-07-31T12:33:35;99651.61;;;26.07;37.07
80248;BME280;69560;52.206;21.018;2023-07-31T12:36:03;99651.19;;;25.98;36.90
80248;BME280;69560;52.206;21.018;2023-07-31T12:38:30;99648.96;;;25.92;37.14
80248;BME280;69560;52.206;21.018;2023-07-31T12:40:57;99644.50;;;25.86;37.03
80248;BME280;69560;52.206;21.018;2023-07-31T12:43:24;99652.13;;;25.75;37.14
80248;BME280;69560;52.206;21.018;2023-07-31T12:45:50;99639.30;;;25.62;37.15
80248;BME280;69560;52.206;21.018;2023-07-31T12:48:17;99641.26;;;25.50;37.26
80248;BME280;69560;52.206;21.018;2023-07-31T12:50:43;99634.90;;;25.41;37.35
80248;BME280;69560;52.206;21.018;2023-07-31T12:53:10;99631.53;;;25.34;37.51
80248;BME280;69560;52.206;21.018;2023-07-31T12:55:36;99634.15;;;25.27;37.66
80248;BME280;69560;52.206;21.018;2023-07-31T12:58:03;99628.11;;;25.20;37.72
80248;BME280;69560;52.206;21.018;2023-07-31T13:00:30;99625.84;;;25.15;37.91